Time;durP1;ratioP1;P1;durP2;ratioP2;P2;SDS_P1;SDS_P2;PMS_P1;PMS_P2;Temp;Humidity;BMP_temperature;BMP_pressure;BME280_temperature;BME280_humidity;BME280_pressure;Samples;Min_cycle;Max_cycle;Signal;HPM_P1;HPM_P2
2022/10/29 00:00:40;;;;;;;35.97;10.30;;;12.60;99.90;;;;;;5137993;27;20046;-53
2022/10/29 00:03:06;;;;;;;26.05;9.50;;;12.50;99.90;;;;;;5137439;27;20050;-44
2022/10/29 00:05:32;;;;;;;28.10;9.88;;;12.50;99.90;;;;;;5123377;27;20076;-44
2022/10/29 00:07:58;;;;;;;29.23;8.40;;;12.60;99.90;;;;;;5133302;27;20070;-50
2022/10/29 00:10:23;;;;;;;29.38;8.93;;;12.60;99.90;;;;;;5129545;27;20494;-50
2022/10/29 00:12:49;;;;;;;35.13;9.32;;;12.50;99.90;;;;;;5117736;27;20082;-46
2022/10/29 00:15:15;;;;;;;29.08;8.45;;;12.40;99.90;;;;;;5136587;27;20153;-53
2022/10/29 00:17:41;;;;;;;32.70;9.05;;;12.40;99.90;;;;;;5118207;27;20484;-48
2022/10/29 00:20:07;;;;;;;29.42;8.75;;;12.50;99.90;;;;;;5118104;27;20046;-48
2022/10/29 00:22:33;;;;;;;21.30;7.70;;;12.50;99.90;;;;;;5136713;27;20042;-47
2022/10/29 00:24:58;;;;;;;30.23;7.57;;;12.40;99.90;;;;;;5136141;27;20070;-46
2022/10/29 00:27:25;;;;;;;34.97;8.57;;;12.40;99.90;;;;;;5136459;27;20046;-50
2022/10/29 00:29:50;;;;;;;22.58;7.00;;;12.40;99.90;;;;;;5136911;27;20177;-47
2022/10/29 00:32:16;;;;;;;24.38;7.40;;;12.40;99.90;;;;;;5135904;27;20046;-52
2022/10/29 00:34:42;;;;;;;35.75;8.88;;;12.40;99.90;;;;;;5136024;27;20352;-45
2022/10/29 00:37:07;;;;;;;36.97;9.60;;;12.40;99.90;;;;;;5136762;27;20098;-53
2022/10/29 00:39:33;;;;;;;36.28;9.15;;;12.40;99.90;;;;;;5118567;27;20121;-47
2022/10/29 00:42:00;;;;;;;41.50;10.32;;;12.50;99.90;;;;;;5135998;27;20091;-49
2022/10/29 00:44:37;;;;;;;29.70;8.93;;;12.30;99.90;;;;;;5134785;27;20049;-47
2022/10/29 00:47:12;;;;;;;25.35;8.68;;;12.40;99.90;;;;;;5131298;27;20126;-46
2022/10/29 00:49:40;;;;;;;32.83;10.23;;;12.30;99.90;;;;;;5137366;27;20091;-47
2022/10/29 00:52:08;;;;;;;22.63;8.07;;;12.30;99.90;;;;;;5140741;27;20046;-47
2022/10/29 00:54:38;;;;;;;35.83;9.23;;;12.30;99.90;;;;;;5139110;27;20061;-44
2022/10/29 00:57:11;;;;;;;37.38;8.30;;;12.20;99.90;;;;;;5140642;27;20113;-48
2022/10/29 00:59:37;;;;;;;162.32;12.57;;;12.10;99.90;;;;;;5121946;27;20381;-52
2022/10/29 01:02:02;;;;;;;33.50;7.22;;;12.10;99.90;;;;;;5104495;27;20070;-47
2022/10/29 01:04:29;;;;;;;32.63;7.90;;;12.00;99.90;;;;;;5134482;27;20032;-48
2022/10/29 01:06:55;;;;;;;49.05;7.22;;;12.00;99.90;;;;;;5130553;27;20046;-49
2022/10/29 01:09:21;;;;;;;11.88;4.90;;;12.00;99.90;;;;;;5129357;27;20452;-53
2022/10/29 01:12:05;;;;;;;20.55;6.43;;;11.90;99.90;;;;;;5140609;27;20043;-46
2022/10/29 01:14:54;;;;;;;18.48;6.65;;;11.70;99.90;;;;;;5138438;27;20050;-53
2022/10/29 01:17:35;;;;;;;19.13;6.80;;;11.70;99.90;;;;;;5140371;27;20062;-46
2022/10/29 01:20:18;;;;;;;13.20;5.78;;;11.60;99.90;;;;;;5121566;27;20142;-47
2022/10/29 01:22:56;;;;;;;17.95;6.88;;;11.70;99.90;;;;;;5120869;27;20054;-46
2022/10/29 01:25:24;;;;;;;25.42;6.97;;;11.60;99.90;;;;;;5119808;27;20412;-49
2022/10/29 01:28:15;;;;;;;22.13;6.10;;;11.60;99.90;;;;;;5120518;27;20047;-50
2022/10/29 01:31:02;;;;;;;53.45;8.43;;;11.70;99.90;;;;;;5107746;27;20051;-47
2022/10/29 01:33:37;;;;;;;72.45;8.88;;;11.70;99.90;;;;;;5138177;27;20097;-49
2022/10/29 01:36:16;;;;;;;17.83;7.38;;;11.70;99.90;;;;;;5139024;27;20071;-46
2022/10/29 01:39:05;;;;;;;14.43;6.10;;;11.60;99.90;;;;;;5139229;27;20471;-53
2022/10/29 01:41:40;;;;;;;28.23;8.32;;;11.70;99.90;;;;;;5138890;27;20453;-50
2022/10/29 01:44:26;;;;;;;20.38;6.65;;;11.60;99.90;;;;;;5138184;27;20065;-49
2022/10/29 01:47:03;;;;;;;26.10;7.78;;;11.60;99.90;;;;;;5131632;27;20046;-48
2022/10/29 01:49:37;;;;;;;13.00;6.10;;;11.60;99.90;;;;;;5139179;27;20050;-48
2022/10/29 01:52:06;;;;;;;66.40;8.57;;;11.70;99.90;;;;;;5121195;27;20078;-48
2022/10/29 01:54:31;;;;;;;28.58;6.55;;;11.60;99.90;;;;;;5138520;27;20053;-48
2022/10/29 01:56:58;;;;;;;36.95;6.55;;;11.60;99.90;;;;;;5138669;27;20047;-50
2022/10/29 01:59:30;;;;;;;38.28;7.43;;;11.70;99.90;;;;;;5138831;27;20103;-46
2022/10/29 02:02:14;;;;;;;54.60;7.88;;;11.60;99.90;;;;;;5134228;27;20066;-51
2022/10/29 02:04:58;;;;;;;44.92;8.15;;;11.60;99.90;;;;;;5130992;27;20054;-49
2022/10/29 02:07:35;;;;;;;74.63;7.50;;;11.60;99.90;;;;;;5112756;27;20054;-51
2022/10/29 02:10:46;;;;;;;55.88;7.63;;;11.60;99.90;;;;;;5127465;27;20500;-49
2022/10/29 02:13:15;;;;;;;76.85;7.82;;;11.50;99.90;;;;;;5033406;28;20505;-46
2022/10/29 02:15:51;;;;;;;93.13;10.13;;;11.60;99.90;;;;;;5032965;28;20625;-53
2022/10/29 02:18:17;;;;;;;120.30;11.90;;;11.50;99.90;;;;;;5034019;28;20171;-50
2022/10/29 02:20:45;;;;;;;40.25;8.70;;;11.70;99.90;;;;;;5017166;28;20055;-49
2022/10/29 02:23:11;;;;;;;32.75;8.50;;;11.60;99.90;;;;;;5033233;28;20053;-44
2022/10/29 02:25:37;;;;;;;42.28;7.80;;;11.60;99.90;;;;;;5032798;28;20083;-49
2022/10/29 02:28:03;;;;;;;27.73;8.02;;;11.70;99.90;;;;;;5034133;28;20518;-44
2022/10/29 02:30:29;;;;;;;66.45;10.02;;;11.70;99.90;;;;;;5033089;28;20061;-48
2022/10/29 02:32:55;;;;;;;45.58;9.00;;;11.60;99.90;;;;;;5033079;28;20052;-52
2022/10/29 02:35:20;;;;;;;44.30;9.02;;;11.60;99.90;;;;;;5032919;28;20598;-45
2022/10/29 02:37:46;;;;;;;59.58;10.52;;;11.70;99.90;;;;;;5033896;28;20381;-47
2022/10/29 02:40:12;;;;;;;57.08;10.18;;;11.70;99.90;;;;;;5034070;28;20072;-54
2022/10/29 02:42:37;;;;;;;49.53;9.93;;;11.70;99.90;;;;;;5033622;28;20067;-52
2022/10/29 02:45:04;;;;;;;94.18;12.40;;;11.70;99.90;;;;;;5116170;27;20419;-46
2022/10/29 02:47:29;;;;;;;101.90;12.15;;;11.70;99.90;;;;;;5138342;27;20535;-51
2022/10/29 02:49:55;;;;;;;91.95;11.80;;;11.80;99.90;;;;;;5119753;27;20130;-52
2022/10/29 02:52:20;;;;;;;100.75;12.68;;;11.80;99.90;;;;;;5137336;27;20559;-46
2022/10/29 02:54:46;;;;;;;89.38;11.93;;;11.80;99.90;;;;;;5138209;27;20541;-44
2022/10/29 02:57:12;;;;;;;88.97;12.90;;;11.80;99.90;;;;;;5138601;27;20047;-53
2022/10/29 02:59:37;;;;;;;77.50;12.13;;;11.70;99.90;;;;;;5138187;27;20453;-53
2022/10/29 03:02:03;;;;;;;59.70;10.75;;;11.80;99.90;;;;;;5138733;27;20551;-45
2022/10/29 03:04:29;;;;;;;54.78;10.65;;;11.70;99.90;;;;;;5115460;27;20089;-43
2022/10/29 03:06:54;;;;;;;54.35;10.27;;;11.70;99.90;;;;;;5128585;27;20047;-45
2022/10/29 03:09:20;;;;;;;64.45;12.63;;;11.70;99.90;;;;;;5127414;27;20057;-55
2022/10/29 03:11:46;;;;;;;48.45;11.10;;;11.70;99.90;;;;;;5138514;27;20479;-48
2022/10/29 03:14:12;;;;;;;38.10;12.10;;;11.80;99.90;;;;;;5135270;27;20711;-44
2022/10/29 03:16:37;;;;;;;78.00;12.88;;;11.70;99.90;;;;;;5138060;27;20050;-56
2022/10/29 03:19:03;;;;;;;60.75;12.68;;;11.80;99.90;;;;;;5137996;27;20460;-47
2022/10/29 03:21:29;;;;;;;55.92;12.45;;;11.80;99.90;;;;;;5138113;27;20039;-44
2022/10/29 03:23:54;;;;;;;47.85;11.85;;;11.70;99.90;;;;;;5136176;27;20487;-44
2022/10/29 03:26:20;;;;;;;39.30;12.52;;;11.80;99.90;;;;;;5118742;27;20087;-50
2022/10/29 03:28:46;;;;;;;39.90;12.90;;;11.90;99.90;;;;;;5137558;27;20065;-47
2022/10/29 03:31:11;;;;;;;31.48;13.55;;;11.80;99.90;;;;;;5137606;27;20500;-49
2022/10/29 03:33:37;;;;;;;28.52;13.65;;;11.90;99.90;;;;;;5136552;27;20046;-46
2022/10/29 03:36:05;;;;;;;26.08;13.40;;;11.90;99.90;;;;;;5137166;27;20476;-52
2022/10/29 03:38:31;;;;;;;60.33;15.07;;;11.90;99.90;;;;;;5136816;27;20679;-50
2022/10/29 03:40:57;;;;;;;43.33;14.55;;;11.90;99.90;;;;;;5118860;27;20086;-46
2022/10/29 03:43:23;;;;;;;59.15;15.20;;;12.10;99.90;;;;;;5116947;27;20138;-52
2022/10/29 03:45:53;;;;;;;44.92;16.00;;;12.00;99.90;;;;;;5117697;27;20058;-50
2022/10/29 03:48:19;;;;;;;50.50;16.17;;;12.00;99.90;;;;;;5136777;27;20046;-48
2022/10/29 03:51:04;;;;;;;53.47;16.60;;;12.00;99.90;;;;;;5136945;27;20755;-49
2022/10/29 03:53:31;;;;;;;44.42;15.60;;;12.10;99.90;;;;;;5123156;27;20153;-47
2022/10/29 03:55:57;;;;;;;46.47;15.10;;;12.00;99.90;;;;;;5136513;27;20049;-44
2022/10/29 03:58:23;;;;;;;35.97;15.38;;;12.10;99.90;;;;;;5136611;27;20459;-52
2022/10/29 04:00:57;;;;;;;32.88;15.45;;;12.10;99.90;;;;;;5132930;27;20055;-46
2022/10/29 04:03:24;;;;;;;33.35;15.02;;;12.00;99.90;;;;;;5117061;27;20050;-51
2022/10/29 04:05:49;;;;;;;34.70;14.93;;;12.00;99.90;;;;;;5120951;27;20744;-46
2022/10/29 04:08:15;;;;;;;43.17;15.43;;;12.10;99.90;;;;;;5129176;27;20099;-51
2022/10/29 04:10:45;;;;;;;38.88;15.15;;;12.10;99.90;;;;;;5120975;27;20043;-48
2022/10/29 04:13:12;;;;;;;58.28;16.73;;;12.10;99.90;;;;;;5132607;27;20051;-47
2022/10/29 04:15:37;;;;;;;60.30;17.48;;;12.10;99.90;;;;;;5132155;27;20126;-54
2022/10/29 04:18:03;;;;;;;60.97;17.65;;;12.20;99.90;;;;;;5136851;27;20079;-48
2022/10/29 04:20:29;;;;;;;116.50;21.33;;;12.30;99.90;;;;;;5117870;27;20046;-46
2022/10/29 04:22:54;;;;;;;103.15;20.35;;;12.20;99.90;;;;;;5135787;27;20385;-49
2022/10/29 04:25:20;;;;;;;80.35;19.42;;;12.10;99.90;;;;;;5138744;27;20522;-50
2022/10/29 04:27:45;;;;;;;97.25;20.00;;;12.10;99.90;;;;;;5141200;27;20047;-48
2022/10/29 04:30:11;;;;;;;69.78;20.40;;;12.20;99.90;;;;;;5140438;27;20051;-45
2022/10/29 04:32:37;;;;;;;61.63;18.20;;;12.30;99.90;;;;;;5140550;27;20548;-51
2022/10/29 04:35:03;;;;;;;55.75;18.83;;;12.20;99.90;;;;;;5140573;27;20610;-47
2022/10/29 04:37:28;;;;;;;99.00;20.15;;;12.10;99.90;;;;;;5140359;27;20046;-53
2022/10/29 04:39:54;;;;;;;84.18;20.90;;;12.30;99.90;;;;;;5139989;27;20461;-48
2022/10/29 04:42:20;;;;;;;88.10;19.83;;;12.10;99.90;;;;;;5140059;27;20053;-52
2022/10/29 04:44:45;;;;;;;95.65;21.60;;;12.20;99.90;;;;;;5139367;27;20043;-45
2022/10/29 04:47:11;;;;;;;99.35;20.75;;;12.20;99.90;;;;;;5135333;27;20039;-47
2022/10/29 04:49:37;;;;;;;91.97;20.67;;;12.20;99.90;;;;;;5136784;27;20442;-49
2022/10/29 04:52:03;;;;;;;84.07;19.42;;;12.20;99.90;;;;;;5139615;27;20047;-51
2022/10/29 04:54:28;;;;;;;108.40;21.70;;;12.30;99.90;;;;;;5139242;27;20503;-50
2022/10/29 04:56:54;;;;;;;85.55;21.48;;;12.20;99.90;;;;;;5138922;27;20439;-54
2022/10/29 04:59:19;;;;;;;65.20;19.77;;;12.30;99.90;;;;;;5139588;27;20252;-52
2022/10/29 05:01:45;;;;;;;101.55;22.02;;;12.40;99.90;;;;;;5139626;27;20054;-51
2022/10/29 05:04:11;;;;;;;93.85;23.40;;;12.20;99.90;;;;;;5136501;27;20046;-45
2022/10/29 05:06:36;;;;;;;75.85;21.15;;;12.40;99.90;;;;;;5127085;27;20507;-47
2022/10/29 05:09:02;;;;;;;64.70;21.10;;;12.40;99.90;;;;;;5128916;27;20524;-44
2022/10/29 05:11:28;;;;;;;82.85;20.95;;;12.30;99.90;;;;;;5139047;27;20043;-46
2022/10/29 05:13:53;;;;;;;104.35;23.13;;;12.40;99.90;;;;;;5138335;27;20110;-51
2022/10/29 05:16:19;;;;;;;105.30;22.73;;;12.30;99.90;;;;;;5139720;27;20043;-51
2022/10/29 05:18:45;;;;;;;93.50;22.63;;;12.40;99.90;;;;;;5139301;27;20495;-55
2022/10/29 05:21:10;;;;;;;84.10;20.90;;;12.40;99.90;;;;;;5139718;27;20057;-48
2022/10/29 05:23:36;;;;;;;105.22;23.90;;;12.50;99.90;;;;;;5139052;27;20043;-47
2022/10/29 05:26:02;;;;;;;81.38;22.55;;;12.50;99.90;;;;;;5139293;27;20118;-47
2022/10/29 05:28:28;;;;;;;83.13;21.50;;;12.50;99.90;;;;;;5121105;27;20099;-44
2022/10/29 05:30:54;;;;;;;87.18;22.38;;;12.50;99.90;;;;;;5139171;27;20042;-54
2022/10/29 05:33:23;;;;;;;111.00;23.42;;;12.50;99.90;;;;;;5138335;27;20092;-51
2022/10/29 05:35:49;;;;;;;109.55;22.83;;;12.50;99.90;;;;;;5138546;27;20046;-49
2022/10/29 05:38:15;;;;;;;83.35;22.13;;;12.40;99.90;;;;;;5139408;27;20569;-55
2022/10/29 05:40:43;;;;;;;125.82;24.25;;;12.40;99.90;;;;;;5119719;27;20065;-51
2022/10/29 05:43:10;;;;;;;135.40;25.67;;;12.40;99.90;;;;;;5137834;27;22055;-51
2022/10/29 05:45:36;;;;;;;123.60;23.23;;;12.40;99.90;;;;;;5139242;27;20126;-46
2022/10/29 05:48:03;;;;;;;93.30;23.20;;;12.60;99.90;;;;;;5119726;27;20185;-47
2022/10/29 05:50:30;;;;;;;150.38;25.30;;;12.60;99.90;;;;;;5119957;27;20134;-44
2022/10/29 05:52:56;;;;;;;94.53;23.50;;;12.50;99.90;;;;;;5138007;27;20061;-53
2022/10/29 05:55:22;;;;;;;83.65;22.58;;;12.60;99.90;;;;;;5138170;27;20073;-48
2022/10/29 05:57:48;;;;;;;71.75;23.33;;;12.50;99.90;;;;;;5138520;27;20034;-45
2022/10/29 06:00:14;;;;;;;68.90;21.70;;;12.50;99.90;;;;;;5138588;27;20047;-43
2022/10/29 06:02:43;;;;;;;106.20;25.42;;;12.60;99.90;;;;;;5138132;27;20095;-51
2022/10/29 06:05:08;;;;;;;90.28;25.73;;;12.50;99.90;;;;;;5127780;27;20122;-43
2022/10/29 06:07:34;;;;;;;93.22;27.08;;;12.50;99.90;;;;;;5134395;27;20065;-52
2022/10/29 06:10:00;;;;;;;104.40;27.67;;;12.60;99.90;;;;;;5109552;27;20078;-50
2022/10/29 06:12:25;;;;;;;112.22;28.10;;;12.50;99.90;;;;;;5137607;27;20260;-45
2022/10/29 06:14:51;;;;;;;95.88;28.25;;;12.60;99.90;;;;;;5138750;27;20566;-50
2022/10/29 06:17:16;;;;;;;73.30;25.52;;;12.50;99.90;;;;;;5118980;27;20054;-45
2022/10/29 06:19:42;;;;;;;111.75;27.83;;;12.70;99.90;;;;;;5139067;27;20046;-52
2022/10/29 06:22:08;;;;;;;113.90;31.25;;;12.60;99.90;;;;;;5135268;27;20042;-52
2022/10/29 06:24:33;;;;;;;70.80;26.45;;;12.70;99.90;;;;;;5138557;27;20360;-44
2022/10/29 06:26:59;;;;;;;80.95;28.88;;;12.60;99.90;;;;;;5135081;27;20085;-44
2022/10/29 06:29:24;;;;;;;98.13;32.83;;;12.70;99.90;;;;;;5109620;27;20123;-52
2022/10/29 06:31:50;;;;;;;81.45;29.42;;;12.60;99.90;;;;;;5138551;27;20055;-50
2022/10/29 06:34:15;;;;;;;73.05;28.50;;;12.60;99.90;;;;;;5138084;27;20046;-45
2022/10/29 06:36:41;;;;;;;71.22;28.73;;;12.60;99.90;;;;;;5138723;27;20135;-50
2022/10/29 06:39:07;;;;;;;82.10;27.50;;;12.70;99.90;;;;;;5138675;27;20054;-50
2022/10/29 06:41:33;;;;;;;123.65;30.95;;;12.50;99.90;;;;;;5138614;27;20107;-51
2022/10/29 06:43:58;;;;;;;147.85;33.67;;;12.70;99.90;;;;;;5119019;27;20042;-45
2022/10/29 06:46:24;;;;;;;103.57;31.02;;;12.50;99.90;;;;;;5118734;27;20043;-50
2022/10/29 06:48:49;;;;;;;93.68;30.45;;;12.60;99.90;;;;;;5138208;27;20064;-55
2022/10/29 06:51:15;;;;;;;105.15;30.23;;;12.70;99.90;;;;;;5118510;27;20058;-52
2022/10/29 06:53:41;;;;;;;89.45;30.08;;;12.50;99.90;;;;;;5137711;27;20049;-49
2022/10/29 06:56:06;;;;;;;88.45;30.02;;;12.50;99.90;;;;;;5137983;27;20050;-56
2022/10/29 06:58:32;;;;;;;104.88;29.35;;;12.50;99.90;;;;;;5137571;27;20579;-44
2022/10/29 07:00:59;;;;;;;95.70;28.52;;;12.70;99.90;;;;;;5137508;27;20082;-51
2022/10/29 07:03:25;;;;;;;71.45;28.33;;;12.70;99.90;;;;;;5135824;27;20046;-52
2022/10/29 07:05:58;;;;;;;78.82;29.00;;;12.60;99.90;;;;;;5123836;27;20516;-46
2022/10/29 07:08:24;;;;;;;82.57;27.55;;;12.50;99.90;;;;;;5112058;27;20058;-56
2022/10/29 07:10:52;;;;;;;61.08;25.75;;;12.60;99.90;;;;;;5133708;27;20546;-55
2022/10/29 07:13:17;;;;;;;68.07;27.70;;;12.60;99.90;;;;;;5136256;27;20125;-50
2022/10/29 07:15:43;;;;;;;60.55;25.98;;;12.50;99.90;;;;;;5118852;27;20583;-49
2022/10/29 07:18:10;;;;;;;46.45;24.52;;;12.60;99.90;;;;;;5136670;27;20043;-47
2022/10/29 07:20:38;;;;;;;42.22;23.27;;;12.60;99.90;;;;;;5137333;27;20108;-51
2022/10/29 07:23:04;;;;;;;41.45;23.33;;;12.50;99.90;;;;;;5136636;27;20046;-46
2022/10/29 07:25:31;;;;;;;43.75;23.02;;;12.50;99.90;;;;;;5100843;27;20052;-50
2022/10/29 07:28:17;;;;;;;39.33;22.77;;;12.50;99.90;;;;;;5117082;27;20038;-45
2022/10/29 07:30:43;;;;;;;42.90;22.38;;;12.40;99.90;;;;;;5115531;27;20046;-47
2022/10/29 07:33:09;;;;;;;38.53;23.73;;;12.40;99.90;;;;;;5135065;27;20808;-52
2022/10/29 07:35:35;;;;;;;38.15;22.63;;;12.50;99.90;;;;;;5123609;27;20091;-50
2022/10/29 07:38:03;;;;;;;41.33;22.23;;;12.50;99.90;;;;;;5117846;27;20067;-47
2022/10/29 07:40:29;;;;;;;44.15;23.60;;;12.50;99.90;;;;;;5118875;27;20400;-46
2022/10/29 07:42:55;;;;;;;47.42;25.08;;;12.50;99.90;;;;;;5134961;27;20448;-52
2022/10/29 07:45:21;;;;;;;38.13;23.00;;;12.50;99.90;;;;;;5136072;27;20174;-51
2022/10/29 07:47:47;;;;;;;47.17;24.27;;;12.50;99.90;;;;;;5136291;27;20103;-44
2022/10/29 07:50:13;;;;;;;39.17;24.27;;;12.50;99.90;;;;;;5136432;27;20054;-51
2022/10/29 07:52:39;;;;;;;35.83;23.90;;;12.60;99.90;;;;;;5135792;27;20118;-52
2022/10/29 07:55:06;;;;;;;44.20;24.98;;;12.70;99.90;;;;;;5118137;27;20050;-50
2022/10/29 07:57:32;;;;;;;36.38;23.13;;;12.70;99.90;;;;;;5136304;27;20137;-45
2022/10/29 07:59:58;;;;;;;48.97;26.20;;;12.70;99.90;;;;;;5114385;27;20777;-49
2022/10/29 08:02:23;;;;;;;45.17;26.08;;;12.90;99.90;;;;;;5135733;27;20518;-44
2022/10/29 08:04:49;;;;;;;53.67;26.05;;;12.80;99.90;;;;;;5129160;27;20043;-45
2022/10/29 08:07:14;;;;;;;40.95;26.17;;;13.00;99.90;;;;;;5129511;27;20146;-52
2022/10/29 08:09:40;;;;;;;42.80;25.45;;;12.90;99.90;;;;;;5125564;27;20046;-54
2022/10/29 08:12:09;;;;;;;40.88;25.17;;;13.10;99.90;;;;;;5138064;27;20090;-52
2022/10/29 08:14:35;;;;;;;43.20;24.90;;;13.10;99.90;;;;;;5136668;27;20587;-46
2022/10/29 08:17:00;;;;;;;36.83;24.90;;;13.20;99.90;;;;;;5136721;27;20046;-48
2022/10/29 08:19:28;;;;;;;40.15;24.65;;;13.20;99.90;;;;;;5136551;27;20500;-52
2022/10/29 08:21:54;;;;;;;39.70;25.35;;;13.20;99.90;;;;;;5135264;27;20745;-50
2022/10/29 08:24:20;;;;;;;44.45;25.50;;;13.40;99.90;;;;;;5100362;27;20050;-50
2022/10/29 08:26:46;;;;;;;37.70;24.67;;;13.30;99.90;;;;;;5135895;27;20147;-47
2022/10/29 08:29:11;;;;;;;36.60;25.15;;;13.40;99.90;;;;;;5135941;27;20095;-53
2022/10/29 08:31:37;;;;;;;38.55;24.13;;;13.60;99.90;;;;;;5135993;27;20050;-48
2022/10/29 08:34:02;;;;;;;41.03;24.92;;;13.70;99.90;;;;;;5136335;27;20060;-47
2022/10/29 08:36:28;;;;;;;39.92;25.25;;;13.70;99.90;;;;;;5135533;27;20058;-45
2022/10/29 08:38:54;;;;;;;45.40;24.83;;;13.70;99.90;;;;;;5137208;27;20046;-45
2022/10/29 08:41:56;;;;;;;40.35;23.15;;;13.80;99.90;;;;;;5137764;27;20050;-49
2022/10/29 08:44:31;;;;;;;43.17;25.58;;;13.80;99.90;;;;;;5131443;27;20047;-50
2022/10/29 08:47:32;;;;;;;37.65;24.42;;;14.00;99.90;;;;;;5122550;27;20882;-50
2022/10/29 08:50:23;;;;;;;37.60;22.95;;;14.00;99.90;;;;;;5030894;28;20213;-53
2022/10/29 08:52:50;;;;;;;45.20;24.33;;;14.10;99.90;;;;;;5029944;28;20080;-46
2022/10/29 08:55:35;;;;;;;40.58;23.77;;;14.20;99.90;;;;;;5031339;28;20067;-47
2022/10/29 08:58:25;;;;;;;35.95;22.33;;;14.20;99.90;;;;;;5031257;28;20144;-52
2022/10/29 09:00:55;;;;;;;38.10;24.30;;;14.20;99.90;;;;;;5031491;28;20061;-52
2022/10/29 09:03:21;;;;;;;44.28;24.30;;;14.20;99.90;;;;;;5030510;28;20052;-44
2022/10/29 09:06:15;;;;;;;41.78;24.25;;;14.30;99.90;;;;;;5031237;28;20048;-54
2022/10/29 09:08:59;;;;;;;41.97;24.88;;;14.30;99.90;;;;;;5013373;28;20069;-47
2022/10/29 09:11:24;;;;;;;43.47;24.70;;;14.40;99.90;;;;;;5019562;28;20141;-53
2022/10/29 09:14:28;;;;;;;43.55;25.33;;;14.30;99.90;;;;;;5034100;28;20737;-48
2022/10/29 09:17:04;;;;;;;40.83;25.98;;;14.40;99.90;;;;;;5035061;28;20072;-44
2022/10/29 09:19:35;;;;;;;45.63;25.83;;;14.40;99.90;;;;;;5035084;28;20068;-49
2022/10/29 09:22:04;;;;;;;45.80;25.25;;;14.50;99.90;;;;;;5034164;28;20049;-52
2022/10/29 09:24:39;;;;;;;41.28;26.70;;;14.50;99.90;;;;;;5034350;28;20553;-52
2022/10/29 09:27:19;;;;;;;45.03;26.75;;;14.50;99.90;;;;;;5103439;27;20815;-49
2022/10/29 09:30:03;;;;;;;46.92;28.30;;;14.50;99.90;;;;;;5121449;27;20046;-56
2022/10/29 09:32:43;;;;;;;52.58;29.48;;;14.70;99.90;;;;;;5126588;27;20043;-44
2022/10/29 09:35:15;;;;;;;50.53;28.35;;;14.80;99.90;;;;;;5135569;27;20054;-45
2022/10/29 09:37:58;;;;;;;44.08;28.27;;;14.90;99.90;;;;;;5120319;27;20050;-48
2022/10/29 09:40:33;;;;;;;;;;;15.00;99.90;;;;;;5140083;27;20046;-47
2022/10/29 09:43:05;;;;;;;40.25;27.55;;;15.20;99.90;;;;;;5138017;27;20917;-47
2022/10/29 09:46:05;;;;;;;50.55;29.23;;;15.40;99.90;;;;;;5141034;27;20058;-52
2022/10/29 09:48:49;;;;;;;46.67;26.30;;;15.50;99.90;;;;;;5121486;27;20046;-48
2022/10/29 09:51:20;;;;;;;;;;;15.70;99.90;;;;;;5139514;27;20294;-53
2022/10/29 09:53:48;;;;;;;43.17;26.63;;;15.70;99.90;;;;;;5138295;27;19922;-45
2022/10/29 09:56:13;;;;;;;38.22;26.33;;;15.80;99.90;;;;;;5138610;27;20157;-46
2022/10/29 09:58:43;;;;;;;35.95;24.70;;;15.70;99.90;;;;;;5138742;27;20046;-44
2022/10/29 10:01:09;;;;;;;38.95;25.45;;;15.80;99.90;;;;;;5138052;27;20704;-45
2022/10/29 10:03:44;;;;;;;39.20;25.98;;;16.00;99.90;;;;;;5138487;27;20460;-49
2022/10/29 10:06:12;;;;;;;41.53;25.60;;;16.00;99.90;;;;;;5125253;27;20050;-55
2022/10/29 10:09:08;;;;;;;37.75;25.83;;;16.20;99.90;;;;;;5129881;27;20186;-55
2022/10/29 10:11:42;;;;;;;34.85;24.17;;;16.20;99.90;;;;;;5034395;28;20131;-48
2022/10/29 10:14:18;;;;;;;37.10;24.40;;;16.20;99.90;;;;;;5033415;28;20617;-55
2022/10/29 10:16:44;;;;;;;35.88;24.25;;;16.20;99.90;;;;;;5034220;28;20052;-44
2022/10/29 10:19:25;;;;;;;30.05;22.13;;;16.30;99.90;;;;;;5016618;28;20652;-49
2022/10/29 10:22:03;;;;;;;37.45;25.60;;;16.40;99.90;;;;;;5015810;28;20606;-53
2022/10/29 10:24:36;;;;;;;36.33;24.25;;;16.40;99.90;;;;;;5032891;28;20049;-51
2022/10/29 10:27:23;;;;;;;;;;;16.50;99.90;;;;;;5017401;28;20549;-45
2022/10/29 10:30:03;;;;;;;34.70;22.23;;;16.60;99.90;;;;;;5030366;28;20016;-50
2022/10/29 10:32:29;;;;;;;29.15;22.85;;;16.70;99.90;;;;;;5032997;28;20053;-52
2022/10/29 10:34:55;;;;;;;29.33;23.20;;;16.70;99.90;;;;;;5033211;28;20064;-51
2022/10/29 10:37:21;;;;;;;33.90;21.65;;;16.90;99.90;;;;;;5033846;28;20767;-47
2022/10/29 10:40:05;;;;;;;32.70;21.67;;;16.90;99.90;;;;;;5033080;28;20504;-51
2022/10/29 10:42:41;;;;;;;27.65;20.50;;;17.00;99.90;;;;;;5031678;28;20166;-51
2022/10/29 10:45:21;;;;;;;26.10;20.50;;;17.10;99.90;;;;;;5032899;28;20411;-49
2022/10/29 10:47:51;;;;;;;29.98;19.45;;;17.10;99.90;;;;;;5073468;27;20055;-48
2022/10/29 10:50:46;;;;;;;30.15;19.40;;;17.10;99.90;;;;;;5136661;27;20047;-48
2022/10/29 10:53:19;;;;;;;27.20;18.00;;;17.20;99.90;;;;;;5031487;28;20544;-49
2022/10/29 10:55:51;;;;;;;31.27;18.90;;;17.30;99.90;;;;;;5032911;28;20091;-53
2022/10/29 10:58:26;;;;;;;28.40;17.60;;;17.30;99.90;;;;;;5032288;28;20415;-49
2022/10/29 11:01:05;;;;;;;31.70;17.90;;;17.40;99.90;;;;;;5032436;28;20488;-48
2022/10/29 11:04:02;;;;;;;29.10;17.48;;;17.40;99.90;;;;;;5031210;28;20060;-51
2022/10/29 11:06:33;;;;;;;25.73;16.88;;;17.40;99.90;;;;;;5002842;28;20052;-50
2022/10/29 11:09:04;;;;;;;29.70;16.15;;;17.50;99.90;;;;;;5015653;28;20048;-45
2022/10/29 11:11:44;;;;;;;26.67;15.27;;;17.70;99.90;;;;;;5030624;28;20080;-53
2022/10/29 11:14:16;;;;;;;30.58;16.40;;;17.80;99.90;;;;;;5030942;28;20048;-49
2022/10/29 11:16:45;;;;;;;23.00;16.85;;;17.90;99.90;;;;;;5014546;28;20496;-49
2022/10/29 11:19:21;;;;;;;27.17;16.67;;;18.00;99.90;;;;;;5031236;28;20057;-53
2022/10/29 11:21:53;;;;;;;25.75;15.93;;;18.20;99.90;;;;;;5031883;28;20080;-49
2022/10/29 11:24:34;;;;;;;22.00;15.45;;;18.20;99.90;;;;;;5032593;28;20089;-47
2022/10/29 11:27:05;;;;;;;24.55;16.50;;;18.30;99.90;;;;;;5032282;28;20165;-45
2022/10/29 11:29:50;;;;;;;25.65;15.73;;;18.30;99.90;;;;;;5069206;27;20067;-49
2022/10/29 11:32:21;;;;;;;28.25;16.65;;;18.40;99.90;;;;;;5121976;27;20058;-51
2022/10/29 11:35:03;;;;;;;24.45;16.77;;;18.40;99.90;;;;;;5134783;27;20118;-49
2022/10/29 11:37:39;;;;;;;25.88;16.70;;;18.40;99.90;;;;;;5136291;27;20545;-51
2022/10/29 11:40:14;;;;;;;23.73;17.52;;;18.40;99.90;;;;;;5136642;27;20214;-49
2022/10/29 11:42:40;;;;;;;24.15;16.00;;;18.40;99.90;;;;;;5115807;27;20059;-53
2022/10/29 11:45:46;;;;;;;25.20;16.73;;;18.40;99.90;;;;;;5136378;27;20403;-48
2022/10/29 11:48:40;;;;;;;21.70;16.25;;;18.40;99.90;;;;;;5132554;27;20134;-52
2022/10/29 11:51:16;;;;;;;29.95;18.05;;;18.40;99.90;;;;;;5136101;27;20459;-47
2022/10/29 11:54:10;;;;;;;27.70;17.55;;;18.40;99.90;;;;;;5135815;27;20107;-51
2022/10/29 11:57:03;;;;;;;26.58;17.38;;;18.30;99.90;;;;;;5123491;27;20138;-49
2022/10/29 11:59:49;;;;;;;28.40;17.35;;;18.30;99.90;;;;;;5116701;27;20114;-53
2022/10/29 12:02:32;;;;;;;24.73;17.67;;;18.30;99.90;;;;;;5134790;27;20419;-53
2022/10/29 12:05:32;;;;;;;27.55;16.80;;;18.20;99.90;;;;;;5127537;27;20044;-52
2022/10/29 12:08:19;;;;;;;25.58;16.48;;;18.20;99.90;;;;;;5113331;27;20099;-52
2022/10/29 12:10:58;;;;;;;26.88;16.95;;;18.30;99.90;;;;;;5131200;27;20486;-51
2022/10/29 12:13:34;;;;;;;29.48;17.13;;;18.30;99.90;;;;;;5134008;27;20039;-46
2022/10/29 12:16:30;;;;;;;25.73;16.73;;;18.40;99.90;;;;;;5135060;27;20069;-53
2022/10/29 12:19:31;;;;;;;27.50;16.52;;;18.50;99.90;;;;;;5136189;27;20117;-50
2022/10/29 12:22:06;;;;;;;28.58;16.27;;;18.60;99.90;;;;;;5030994;28;20064;-50
2022/10/29 12:25:00;;;;;;;25.90;16.27;;;18.70;99.90;;;;;;5029591;28;20049;-46
2022/10/29 12:27:53;;;;;;;26.85;16.75;;;18.70;99.90;;;;;;5031477;28;20702;-45
2022/10/29 12:30:22;;;;;;;30.58;16.20;;;18.60;99.90;;;;;;5031339;28;20049;-47
2022/10/29 12:32:56;;;;;;;24.55;15.98;;;18.60;99.90;;;;;;5014285;28;20105;-47
2022/10/29 12:35:28;;;;;;;26.95;18.20;;;18.50;99.90;;;;;;5014667;28;20228;-48
2022/10/29 12:38:17;;;;;;;27.25;16.00;;;18.30;99.90;;;;;;5031336;28;20048;-52
2022/10/29 12:40:47;;;;;;;27.40;17.10;;;18.30;99.90;;;;;;5030814;28;20064;-51
2022/10/29 12:43:32;;;;;;;26.05;15.70;;;18.20;99.90;;;;;;5028568;28;20088;-50
2022/10/29 12:46:48;;;;;;;29.02;16.65;;;18.20;99.90;;;;;;5033142;28;20049;-53
2022/10/29 12:49:37;;;;;;;28.88;15.70;;;18.40;99.90;;;;;;4974857;28;20054;-51